createdAt,value
2019-01-26T00:00:40.608Z,13.53
2019-01-26T00:03:09.171Z,13.77
2019-01-26T00:05:37.655Z,13.33
2019-01-26T00:08:06.139Z,15.20
2019-01-26T00:10:34.552Z,14.17
2019-01-26T00:13:02.952Z,16.37
2019-01-26T00:15:31.375Z,15.57
2019-01-26T00:17:59.859Z,16.40
2019-01-26T00:20:28.278Z,14.70
2019-01-26T00:22:56.685Z,16.20
2019-01-26T00:25:25.175Z,15.77
2019-01-26T00:27:53.579Z,16.20
2019-01-26T00:30:22.068Z,14.63
2019-01-26T00:32:50.484Z,15.57
2019-01-26T00:35:18.886Z,15.67
2019-01-26T00:37:47.283Z,16.67
2019-01-26T00:40:16.023Z,16.70
2019-01-26T00:42:44.431Z,17.50
2019-01-26T00:45:13.573Z,18.73
2019-01-26T00:47:42.017Z,20.07
2019-01-26T00:50:12.260Z,20.60
2019-01-26T00:52:40.667Z,21.87
2019-01-26T00:55:09.820Z,22.97
2019-01-26T00:57:38.371Z,22.80
2019-01-26T01:00:12.959Z,23.00
2019-01-26T01:02:42.047Z,25.37
2019-01-26T01:05:10.695Z,26.37
2019-01-26T01:07:39.131Z,24.33
2019-01-26T01:10:16.476Z,25.37
2019-01-26T01:12:44.956Z,25.57
2019-01-26T01:15:18.762Z,25.00
2019-01-26T01:17:47.289Z,24.77
2019-01-26T01:20:16.015Z,26.43
2019-01-26T01:22:44.504Z,26.13
2019-01-26T01:25:13.867Z,26.40
2019-01-26T01:27:42.650Z,26.83
2019-01-26T01:30:17.196Z,28.80
2019-01-26T01:32:45.848Z,25.83
2019-01-26T01:35:14.336Z,27.67
2019-01-26T01:37:42.861Z,26.03
2019-01-26T01:40:13.989Z,29.03
2019-01-26T01:42:42.499Z,27.60
2019-01-26T01:45:17.022Z,29.30
2019-01-26T01:47:45.651Z,29.30
2019-01-26T01:50:14.915Z,29.23
2019-01-26T01:52:43.342Z,29.97
2019-01-26T01:55:12.046Z,29.33
2019-01-26T01:57:40.455Z,28.57
2019-01-26T02:00:20.423Z,29.63
2019-01-26T02:02:48.831Z,27.87
2019-01-26T02:05:17.484Z,28.10
2019-01-26T02:07:46.061Z,27.37
2019-01-26T02:10:20.132Z,28.27
2019-01-26T02:12:48.881Z,27.70
2019-01-26T02:15:17.358Z,28.60
2019-01-26T02:17:45.775Z,27.20
2019-01-26T02:20:19.919Z,25.63
2019-01-26T02:22:48.579Z,26.27
2019-01-26T02:25:17.114Z,24.57
2019-01-26T02:27:45.516Z,24.77
2019-01-26T02:30:16.877Z,25.23
2019-01-26T02:32:45.284Z,24.67
2019-01-26T02:35:13.926Z,23.73
2019-01-26T02:37:42.434Z,25.40
2019-01-26T02:40:13.279Z,26.23
2019-01-26T02:42:41.706Z,26.80
2019-01-26T02:45:12.150Z,27.43
2019-01-26T02:47:40.629Z,30.57
2019-01-26T02:50:12.147Z,30.43
2019-01-26T02:55:14.713Z,31.00
2019-01-26T02:57:43.189Z,29.53
2019-01-26T03:00:14.793Z,30.73
2019-01-26T03:02:43.194Z,32.93
2019-01-26T03:05:12.423Z,32.20
2019-01-26T03:07:40.818Z,32.13
2019-01-26T03:10:15.063Z,33.33
2019-01-26T03:12:43.551Z,35.70
2019-01-26T03:15:17.007Z,33.77
2019-01-26T03:17:45.481Z,35.30
2019-01-26T03:20:15.543Z,36.10
2019-01-26T03:22:43.940Z,34.43
2019-01-26T03:25:13.888Z,34.07
2019-01-26T03:27:42.295Z,36.30
2019-01-26T03:30:13.795Z,34.50
2019-01-26T03:32:42.348Z,35.87
2019-01-26T03:35:10.886Z,36.53
2019-01-26T03:37:39.303Z,38.23
2019-01-26T03:40:10.926Z,39.23
2019-01-26T03:42:39.452Z,37.40
2019-01-26T03:45:10.210Z,38.47
2019-01-26T03:47:40.235Z,37.43
2019-01-26T03:50:11.294Z,38.17
2019-01-26T03:52:39.697Z,39.03
2019-01-26T03:55:11.032Z,42.90
2019-01-26T03:57:39.609Z,42.77
2019-01-26T04:00:14.263Z,46.83
2019-01-26T04:02:42.815Z,43.37
2019-01-26T04:05:11.368Z,49.53
2019-01-26T04:07:39.767Z,41.90
2019-01-26T04:10:10.951Z,46.97
2019-01-26T04:12:39.416Z,46.63
2019-01-26T04:15:10.670Z,44.83
2019-01-26T04:17:39.222Z,44.77
2019-01-26T04:20:10.701Z,45.57
2019-01-26T04:22:39.119Z,44.80
2019-01-26T04:25:07.687Z,47.60
2019-01-26T04:27:36.089Z,41.83
2019-01-26T04:30:07.519Z,46.97
2019-01-26T04:32:35.958Z,44.93
2019-01-26T04:35:06.106Z,49.47
2019-01-26T04:37:34.515Z,45.90
2019-01-26T04:40:03.014Z,47.63
2019-01-26T04:42:31.446Z,51.17
2019-01-26T04:44:59.838Z,47.00
2019-01-26T04:47:31.094Z,49.60
2019-01-26T04:49:58.438Z,49.00
2019-01-26T04:52:26.838Z,50.97
2019-01-26T04:54:55.243Z,47.20
2019-01-26T04:57:23.642Z,52.77
2019-01-26T04:59:52.040Z,53.23
2019-01-26T05:02:20.498Z,54.20
2019-01-26T05:04:48.976Z,51.87
2019-01-26T05:07:17.388Z,53.00
2019-01-26T05:09:45.814Z,48.20
2019-01-26T05:12:14.222Z,53.30
2019-01-26T05:14:42.625Z,52.27
2019-01-26T05:17:11.124Z,53.50
2019-01-26T05:19:39.536Z,49.57
2019-01-26T05:22:08.064Z,54.37
2019-01-26T05:24:36.561Z,50.40
2019-01-26T05:27:05.134Z,55.00
2019-01-26T05:29:33.540Z,49.73
2019-01-26T05:32:02.027Z,51.70
2019-01-26T05:34:30.446Z,49.50
2019-01-26T05:36:58.869Z,49.30
2019-01-26T05:39:27.351Z,51.07
2019-01-26T05:41:55.760Z,50.03
2019-01-26T05:44:24.163Z,49.13
2019-01-26T05:46:52.677Z,48.93
2019-01-26T05:49:21.151Z,49.73
2019-01-26T05:51:49.556Z,48.43
2019-01-26T05:54:17.979Z,47.93
2019-01-26T05:56:46.411Z,49.77
2019-01-26T05:59:18.123Z,48.93
2019-01-26T06:01:46.544Z,50.60
2019-01-26T06:04:14.949Z,49.33
2019-01-26T06:06:43.360Z,48.13
2019-01-26T06:09:11.874Z,48.50
2019-01-26T06:11:40.275Z,45.67
2019-01-26T06:14:08.746Z,48.50
2019-01-26T06:16:37.219Z,47.43
2019-01-26T06:19:05.675Z,50.50
2019-01-26T06:21:34.098Z,50.43
2019-01-26T06:24:02.524Z,47.77
2019-01-26T06:26:31.015Z,48.63
2019-01-26T06:28:59.435Z,47.33
2019-01-26T06:31:27.856Z,47.67
2019-01-26T06:33:56.271Z,46.73
2019-01-26T06:36:24.692Z,46.83
2019-01-26T06:38:53.572Z,46.73
2019-01-26T06:41:22.056Z,46.20
2019-01-26T06:43:50.464Z,46.47
2019-01-26T06:46:20.683Z,47.93
2019-01-26T06:48:50.755Z,48.67
2019-01-26T06:51:19.166Z,46.23
2019-01-26T06:53:47.584Z,50.20
2019-01-26T06:56:15.987Z,47.83
2019-01-26T06:58:44.394Z,48.13
2019-01-26T07:01:12.816Z,49.57
2019-01-26T07:03:41.220Z,50.10
2019-01-26T07:06:14.245Z,48.63
2019-01-26T07:08:42.756Z,49.43
2019-01-26T07:11:11.164Z,48.40
2019-01-26T07:13:39.582Z,48.00
2019-01-26T07:16:08.004Z,48.33
2019-01-26T07:18:36.405Z,48.30
2019-01-26T07:21:04.896Z,49.93
2019-01-26T07:23:33.312Z,49.00
2019-01-26T07:26:01.796Z,47.37
2019-01-26T07:28:30.216Z,51.20
2019-01-26T07:30:58.624Z,46.93
2019-01-26T07:33:27.026Z,50.33
2019-01-26T07:35:55.438Z,47.53
2019-01-26T07:38:23.860Z,47.37
2019-01-26T07:40:52.263Z,45.13
2019-01-26T07:43:20.671Z,46.73
2019-01-26T07:45:49.096Z,47.33
2019-01-26T07:48:17.491Z,45.53
2019-01-26T07:50:45.957Z,46.27
2019-01-26T07:53:14.428Z,45.53
2019-01-26T07:55:42.819Z,47.07
2019-01-26T07:58:13.901Z,43.47
2019-01-26T08:00:42.353Z,44.27
2019-01-26T08:03:10.747Z,42.73
2019-01-26T08:05:39.159Z,44.43
2019-01-26T08:08:07.583Z,44.83
2019-01-26T08:10:35.994Z,43.17
2019-01-26T08:13:04.489Z,44.83
2019-01-26T08:15:33.860Z,44.17
2019-01-26T08:18:02.278Z,43.67
2019-01-26T08:20:30.672Z,43.70
2019-01-26T08:22:59.104Z,43.87
2019-01-26T08:25:27.577Z,45.60
2019-01-26T08:27:56.109Z,42.60
2019-01-26T08:30:24.906Z,43.63
2019-01-26T08:32:53.386Z,41.57
2019-01-26T08:35:21.872Z,39.13
2019-01-26T08:37:50.919Z,39.57
2019-01-26T08:40:21.156Z,36.40
2019-01-26T08:42:49.629Z,36.73
2019-01-26T08:45:18.051Z,35.83
2019-01-26T08:47:46.553Z,34.30
2019-01-26T08:50:17.707Z,34.23
2019-01-26T08:52:46.195Z,33.43
2019-01-26T08:55:18.207Z,31.97
2019-01-26T08:57:45.430Z,30.97
2019-01-26T09:00:24.932Z,31.73
2019-01-26T09:02:55.654Z,30.00
2019-01-26T09:05:27.158Z,29.57
2019-01-26T09:07:57.905Z,28.27
2019-01-26T09:10:26.306Z,29.03
2019-01-26T09:12:54.726Z,28.43
2019-01-26T09:15:23.746Z,26.73
2019-01-26T09:17:52.228Z,25.60
2019-01-26T09:20:20.687Z,23.67
2019-01-26T09:22:49.439Z,22.63
2019-01-26T09:25:17.924Z,21.07
2019-01-26T09:27:46.687Z,22.17
2019-01-26T09:30:19.964Z,19.07
2019-01-26T09:32:48.549Z,20.07
2019-01-26T09:35:17.146Z,19.50
2019-01-26T09:37:45.624Z,18.57
2019-01-26T09:40:17.100Z,18.57
2019-01-26T09:42:45.501Z,17.07
2019-01-26T09:45:16.104Z,18.37
2019-01-26T09:47:45.051Z,18.57
2019-01-26T09:50:14.394Z,19.73
2019-01-26T09:52:42.867Z,20.13
2019-01-26T09:55:16.630Z,20.00
2019-01-26T09:57:45.121Z,21.37
2019-01-26T10:00:19.072Z,21.07
2019-01-26T10:02:47.540Z,22.17
2019-01-26T10:05:17.852Z,23.27
2019-01-26T10:07:46.410Z,23.20
2019-01-26T10:10:16.208Z,25.77
2019-01-26T10:12:44.686Z,24.23
2019-01-26T10:15:18.865Z,24.97
2019-01-26T10:17:47.531Z,24.47
2019-01-26T10:20:19.236Z,26.33
2019-01-26T10:22:47.738Z,26.60
2019-01-26T10:25:17.683Z,26.53
2019-01-26T10:27:46.174Z,28.60
2019-01-26T10:30:24.991Z,28.23
2019-01-26T10:32:53.400Z,28.10
2019-01-26T10:35:23.504Z,28.53
2019-01-26T10:37:51.982Z,29.00
2019-01-26T10:40:22.606Z,28.23
2019-01-26T10:42:51.119Z,28.50
2019-01-26T10:45:19.511Z,29.60
2019-01-26T10:47:48.002Z,29.43
2019-01-26T10:50:16.423Z,29.83
2019-01-26T10:52:44.847Z,30.00
2019-01-26T10:55:14.784Z,29.63
2019-01-26T10:57:43.201Z,27.53
2019-01-26T11:00:17.334Z,28.60
2019-01-26T11:02:45.744Z,28.73
2019-01-26T11:05:14.291Z,27.97
2019-01-26T11:07:42.714Z,29.57
2019-01-26T11:10:13.994Z,27.90
2019-01-26T11:12:42.495Z,27.57
2019-01-26T11:15:12.244Z,28.57
2019-01-26T11:17:40.676Z,28.47
2019-01-26T11:20:12.372Z,28.27
2019-01-26T11:22:40.789Z,28.97
2019-01-26T11:25:13.252Z,29.53
2019-01-26T11:27:41.691Z,28.87
2019-01-26T11:30:18.427Z,28.30
2019-01-26T11:32:46.905Z,29.97
2019-01-26T11:35:20.949Z,27.03
2019-01-26T11:37:49.349Z,28.23
2019-01-26T11:40:19.464Z,26.87
2019-01-26T11:42:47.876Z,26.27
2019-01-26T11:45:21.329Z,26.73
2019-01-26T11:47:49.818Z,25.33
2019-01-26T11:50:26.040Z,27.47
2019-01-26T11:52:54.691Z,25.07
2019-01-26T11:55:24.794Z,26.50
2019-01-26T11:57:53.220Z,28.17
2019-01-26T12:00:23.435Z,27.30
2019-01-26T12:02:53.488Z,28.10
2019-01-26T12:05:23.621Z,29.70
2019-01-26T12:07:52.105Z,28.43
2019-01-26T12:10:20.577Z,29.33
2019-01-26T12:12:51.689Z,29.07
2019-01-26T12:15:20.223Z,29.77
2019-01-26T12:17:48.670Z,29.10
2019-01-26T12:20:17.720Z,27.97
2019-01-26T12:22:46.126Z,29.67
2019-01-26T12:25:14.708Z,28.73
2019-01-26T12:27:43.125Z,28.50
2019-01-26T12:30:15.353Z,28.00
2019-01-26T12:32:43.777Z,25.53
2019-01-26T12:35:14.405Z,24.70
2019-01-26T12:37:42.892Z,23.13
2019-01-26T12:40:13.547Z,23.17
2019-01-26T12:42:41.959Z,22.47
2019-01-26T12:45:13.784Z,20.37
2019-01-26T12:47:42.527Z,20.97
2019-01-26T12:50:12.779Z,21.07
2019-01-26T12:52:42.025Z,21.37
2019-01-26T12:55:18.819Z,20.33
2019-01-26T12:57:47.229Z,21.43
2019-01-26T13:00:21.065Z,21.50
2019-01-26T13:02:49.617Z,20.87
2019-01-26T13:05:18.089Z,21.17
2019-01-26T13:07:46.583Z,19.47
2019-01-26T13:10:36.505Z,18.13
2019-01-26T13:13:06.096Z,18.00
2019-01-26T13:15:34.575Z,17.37
2019-01-26T13:18:03.138Z,17.00
2019-01-26T13:20:31.540Z,17.50
2019-01-26T13:22:59.962Z,16.37
2019-01-26T13:25:28.399Z,16.87
2019-01-26T13:27:56.873Z,16.30
2019-01-26T13:30:25.771Z,14.90
2019-01-26T13:32:54.198Z,16.03
2019-01-26T13:35:22.685Z,14.73
2019-01-26T13:37:51.169Z,14.30
2019-01-26T13:40:25.174Z,13.40
2019-01-26T13:42:53.675Z,14.00
2019-01-26T13:45:22.184Z,12.80
2019-01-26T13:47:50.671Z,12.90
2019-01-26T13:50:19.096Z,12.37
2019-01-26T13:52:47.583Z,12.33
2019-01-26T13:55:18.576Z,12.27
2019-01-26T13:57:47.057Z,11.50
2019-01-26T14:00:27.313Z,11.93
2019-01-26T14:02:55.870Z,11.37
2019-01-26T14:05:24.368Z,11.03
2019-01-26T14:07:52.905Z,10.70
2019-01-26T14:10:25.193Z,10.10
2019-01-26T14:12:53.662Z,10.10
2019-01-26T14:15:25.676Z,10.10
2019-01-26T14:17:54.217Z,9.17
2019-01-26T14:20:27.527Z,9.60
2019-01-26T14:22:55.935Z,8.20
2019-01-26T14:25:24.901Z,8.73
2019-01-26T14:27:53.465Z,8.00
2019-01-26T14:30:30.513Z,9.17
2019-01-26T14:32:58.931Z,8.93
2019-01-26T14:35:27.345Z,8.33
2019-01-26T14:37:55.805Z,8.23
2019-01-26T14:40:24.448Z,8.63
2019-01-26T14:42:54.353Z,8.30
2019-01-26T14:45:23.214Z,8.53
2019-01-26T14:47:51.608Z,8.40
2019-01-26T14:50:20.175Z,8.57
2019-01-26T14:52:48.571Z,7.93
2019-01-26T14:55:22.523Z,7.57
2019-01-26T14:57:50.938Z,7.80
2019-01-26T15:00:25.023Z,8.00
2019-01-26T15:02:53.527Z,7.43
2019-01-26T15:05:22.005Z,8.10
2019-01-26T15:07:50.407Z,7.30
2019-01-26T15:10:18.900Z,8.47
2019-01-26T15:12:47.307Z,8.83
2019-01-26T15:15:17.955Z,7.73
2019-01-26T15:17:46.559Z,8.40
2019-01-26T15:20:17.783Z,8.77
2019-01-26T15:22:46.187Z,8.17
2019-01-26T15:25:14.737Z,8.13
2019-01-26T15:27:43.135Z,8.53
2019-01-26T15:30:21.724Z,8.83
2019-01-26T15:32:50.153Z,8.40
2019-01-26T15:35:18.706Z,9.37
2019-01-26T15:37:47.121Z,8.73
2019-01-26T15:40:15.590Z,8.20
2019-01-26T15:42:44.064Z,8.83
2019-01-26T15:45:15.933Z,9.07
2019-01-26T15:47:44.373Z,9.17
2019-01-26T15:50:14.347Z,9.10
2019-01-26T15:55:30.403Z,8.90
2019-01-26T15:57:58.883Z,8.63
2019-01-26T16:00:43.906Z,8.50
2019-01-26T16:03:12.475Z,9.03
2019-01-26T16:05:41.007Z,9.07
2019-01-26T16:08:09.671Z,8.53
2019-01-26T16:10:38.096Z,8.57
2019-01-26T16:13:06.768Z,8.90
2019-01-26T16:15:37.415Z,8.60
2019-01-26T16:18:08.571Z,8.57
2019-01-26T16:20:36.957Z,8.73
2019-01-26T16:23:09.369Z,8.53
2019-01-26T16:25:35.560Z,7.67
2019-01-26T16:28:04.081Z,8.37
2019-01-26T16:30:32.937Z,8.13
2019-01-26T16:33:01.380Z,8.10
2019-01-26T16:35:29.794Z,8.47
2019-01-26T16:37:58.291Z,7.97
2019-01-26T16:40:31.762Z,8.40
2019-01-26T16:43:00.185Z,8.90
2019-01-26T16:45:31.181Z,10.83
2019-01-26T16:47:59.654Z,10.67
2019-01-26T16:50:30.114Z,11.43
2019-01-26T16:52:58.636Z,12.10
2019-01-26T16:55:27.095Z,12.67
2019-01-26T16:57:55.563Z,12.43
2019-01-26T17:00:27.049Z,11.60
2019-01-26T17:02:55.462Z,11.77
2019-01-26T17:05:25.896Z,11.90
2019-01-26T17:07:54.370Z,11.60
2019-01-26T17:10:22.871Z,11.37
2019-01-26T17:12:51.331Z,10.07
2019-01-26T17:15:19.786Z,10.40
2019-01-26T17:17:48.210Z,11.13
2019-01-26T17:20:25.179Z,11.17
2019-01-26T17:22:54.410Z,11.00
2019-01-26T17:25:22.848Z,9.90
2019-01-26T17:27:51.271Z,11.20
2019-01-26T17:30:22.753Z,10.20
2019-01-26T17:32:51.169Z,10.73
2019-01-26T17:35:20.240Z,10.47
2019-01-26T17:37:48.634Z,10.23
2019-01-26T17:40:22.690Z,9.67
2019-01-26T17:42:51.099Z,9.13
2019-01-26T17:45:20.332Z,9.23
2019-01-26T17:47:49.757Z,9.63
2019-01-26T17:50:20.140Z,10.37
2019-01-26T17:52:48.620Z,10.33
2019-01-26T17:55:17.116Z,11.53
2019-01-26T17:57:45.589Z,10.73
2019-01-26T18:00:32.136Z,11.37
2019-01-26T18:03:00.603Z,10.57
2019-01-26T18:05:29.019Z,13.73
2019-01-26T18:07:58.937Z,10.10
2019-01-26T18:10:27.405Z,10.03
2019-01-26T18:12:57.054Z,8.67
2019-01-26T18:15:25.539Z,8.67
2019-01-26T18:17:53.946Z,9.13
2019-01-26T18:20:24.665Z,8.03
2019-01-26T18:22:53.204Z,7.77
2019-01-26T18:25:23.243Z,7.37
2019-01-26T18:27:51.763Z,6.53
2019-01-26T18:30:28.657Z,6.53
2019-01-26T18:32:57.050Z,5.87
2019-01-26T18:35:26.125Z,5.30
2019-01-26T18:37:54.685Z,5.47
2019-01-26T18:40:25.219Z,4.93
2019-01-26T18:42:53.872Z,5.00
2019-01-26T18:45:25.373Z,4.97
2019-01-26T18:47:53.849Z,4.87
2019-01-26T18:50:33.752Z,4.43
2019-01-26T18:53:02.240Z,4.27
2019-01-26T18:55:30.631Z,4.17
2019-01-26T18:57:59.131Z,4.00
2019-01-26T19:00:30.265Z,4.13
2019-01-26T19:03:23.192Z,4.00
2019-01-26T19:05:53.433Z,4.03
2019-01-26T19:08:21.844Z,3.73
2019-01-26T19:10:50.248Z,3.80
2019-01-26T19:13:18.673Z,4.27
2019-01-26T19:15:47.082Z,3.80
2019-01-26T19:18:15.503Z,4.00
2019-01-26T19:20:44.494Z,4.07
2019-01-26T19:23:13.000Z,4.10
2019-01-26T19:25:41.401Z,4.10
2019-01-26T19:28:09.932Z,4.20
2019-01-26T19:30:38.363Z,4.20
2019-01-26T19:33:06.856Z,4.40
2019-01-26T19:35:35.254Z,4.60
2019-01-26T19:38:03.837Z,4.50
2019-01-26T19:40:32.240Z,4.70
2019-01-26T19:43:00.701Z,4.30
2019-01-26T19:45:29.090Z,4.57
2019-01-26T19:47:57.935Z,4.73
2019-01-26T19:50:26.567Z,4.50
2019-01-26T19:52:55.028Z,4.37
2019-01-26T19:55:24.278Z,5.00
2019-01-26T19:57:52.739Z,4.83
2019-01-26T20:00:21.407Z,4.80
2019-01-26T20:02:49.816Z,4.60
2019-01-26T20:05:23.277Z,4.50
2019-01-26T20:07:51.753Z,4.87
2019-01-26T20:10:20.801Z,4.80
2019-01-26T20:12:49.290Z,5.27
2019-01-26T20:15:22.612Z,4.33
2019-01-26T20:17:51.160Z,4.33
2019-01-26T20:20:26.570Z,5.03
2019-01-26T20:22:55.076Z,5.00
2019-01-26T20:25:23.564Z,5.07
2019-01-26T20:27:52.048Z,5.20
2019-01-26T20:30:29.069Z,5.13
2019-01-26T20:32:57.535Z,4.77
2019-01-26T20:35:25.963Z,4.90
2019-01-26T20:37:54.673Z,4.73
2019-01-26T20:40:23.299Z,5.10
2019-01-26T20:42:51.899Z,4.33
2019-01-26T20:45:22.838Z,5.10
2019-01-26T20:47:51.296Z,4.23
2019-01-26T20:50:19.685Z,4.07
2019-01-26T20:52:48.160Z,4.23
2019-01-26T20:55:16.580Z,3.93
2019-01-26T20:57:45.026Z,3.80
2019-01-26T21:00:24.675Z,4.30
2019-01-26T21:02:53.160Z,3.77
2019-01-26T21:05:21.617Z,3.80
2019-01-26T21:07:50.030Z,4.23
2019-01-26T21:10:29.298Z,3.80
2019-01-26T21:12:58.348Z,3.63
2019-01-26T21:15:27.813Z,3.77
2019-01-26T21:17:56.414Z,3.80
2019-01-26T21:20:26.387Z,3.70
2019-01-26T21:22:54.861Z,3.43
2019-01-26T21:25:24.132Z,3.13
2019-01-26T21:27:52.844Z,3.20
2019-01-26T21:30:23.215Z,3.27
2019-01-26T21:32:51.952Z,3.20
2019-01-26T21:35:20.623Z,2.73
2019-01-26T21:37:49.190Z,2.77
2019-01-26T21:40:26.399Z,2.50
2019-01-26T21:42:54.948Z,2.60
2019-01-26T21:45:23.424Z,2.40
2019-01-26T21:47:52.120Z,2.50
2019-01-26T21:50:25.580Z,2.20
2019-01-26T21:52:54.355Z,2.40
2019-01-26T21:55:22.813Z,2.50
2019-01-26T21:57:51.888Z,2.50
2019-01-26T22:00:22.729Z,2.10
2019-01-26T22:02:51.208Z,2.17
2019-01-26T22:05:19.613Z,2.23
2019-01-26T22:07:48.084Z,2.17
2019-01-26T22:10:24.419Z,2.20
2019-01-26T22:12:52.888Z,2.57
2019-01-26T22:15:22.513Z,2.50
2019-01-26T22:17:50.989Z,2.13
2019-01-26T22:20:21.245Z,2.00
2019-01-26T22:22:51.516Z,2.17
2019-01-26T22:25:20.479Z,2.13
2019-01-26T22:27:48.868Z,1.93
2019-01-26T22:30:26.387Z,1.80
2019-01-26T22:32:54.926Z,2.20
2019-01-26T22:35:23.465Z,1.97
2019-01-26T22:37:51.840Z,1.97
2019-01-26T22:40:31.759Z,1.90
2019-01-26T22:43:00.404Z,1.80
2019-01-26T22:45:29.348Z,1.80
2019-01-26T22:47:57.738Z,1.50
2019-01-26T22:50:27.677Z,1.83
2019-01-26T22:52:56.224Z,1.40
2019-01-26T22:55:24.747Z,1.90
2019-01-26T22:57:53.330Z,2.10
2019-01-26T23:00:52.876Z,1.57
2019-01-26T23:03:27.460Z,1.97
2019-01-26T23:06:20.700Z,2.13
2019-01-26T23:08:49.267Z,1.70
2019-01-26T23:11:29.320Z,1.93
2019-01-26T23:14:00.791Z,1.63
2019-01-26T23:16:47.071Z,2.03
2019-01-26T23:19:18.552Z,1.80
2019-01-26T23:22:06.705Z,2.00
2019-01-26T23:24:54.860Z,1.73
2019-01-26T23:27:53.133Z,1.67
2019-01-26T23:30:30.313Z,1.70
2019-01-26T23:32:58.688Z,2.00
2019-01-26T23:35:27.079Z,1.70
2019-01-26T23:37:55.687Z,1.80
2019-01-26T23:40:24.104Z,1.83
2019-01-26T23:42:52.487Z,1.83
2019-01-26T23:45:20.955Z,1.80
2019-01-26T23:47:49.347Z,1.60
2019-01-26T23:50:17.741Z,1.73
2019-01-26T23:52:46.144Z,1.60
2019-01-26T23:55:14.670Z,1.70
2019-01-26T23:57:43.060Z,1.57
